sensor_id;sensor_type;location;lat;lon;timestamp;P1;durP1;ratioP1;P2;durP2;ratioP2
45114;SDS011;30877;43.706;10.780;2024-03-23T00:52:27;9.52;;;8.27;;
45114;SDS011;30877;43.706;10.780;2024-03-23T00:54:54;10.77;;;8.00;;
45114;SDS011;30877;43.706;10.780;2024-03-23T00:57:22;10.20;;;7.70;;
45114;SDS011;30877;43.706;10.780;2024-03-23T00:59:49;8.50;;;7.60;;
45114;SDS011;30877;43.706;10.780;2024-03-23T01:02:19;11.82;;;8.20;;
45114;SDS011;30877;43.706;10.780;2024-03-23T01:04:47;11.35;;;8.05;;
45114;SDS011;30877;43.706;10.780;2024-03-23T01:07:14;10.45;;;7.80;;
45114;SDS011;30877;43.706;10.780;2024-03-23T01:09:43;12.45;;;8.07;;
45114;SDS011;30877;43.706;10.780;2024-03-23T01:12:11;10.23;;;8.43;;
45114;SDS011;30877;43.706;10.780;2024-03-23T01:14:39;10.85;;;8.15;;
45114;SDS011;30877;43.706;10.780;2024-03-23T01:17:08;11.93;;;8.15;;
45114;SDS011;30877;43.706;10.780;2024-03-23T01:19:35;10.25;;;7.97;;
45114;SDS011;30877;43.706;10.780;2024-03-23T01:22:03;11.38;;;7.80;;
45114;SDS011;30877;43.706;10.780;2024-03-23T01:24:34;11.15;;;7.65;;
45114;SDS011;30877;43.706;10.780;2024-03-23T01:27:04;8.65;;;6.95;;
45114;SDS011;30877;43.706;10.780;2024-03-23T01:29:33;11.32;;;6.82;;
45114;SDS011;30877;43.706;10.780;2024-03-23T01:32:01;8.25;;;7.15;;
45114;SDS011;30877;43.706;10.780;2024-03-23T01:34:29;9.82;;;7.50;;
45114;SDS011;30877;43.706;10.780;2024-03-23T01:36:59;9.75;;;7.05;;
45114;SDS011;30877;43.706;10.780;2024-03-23T01:39:28;11.23;;;7.20;;
45114;SDS011;30877;43.706;10.780;2024-03-23T01:41:56;8.35;;;6.40;;
45114;SDS011;30877;43.706;10.780;2024-03-23T01:44:27;11.20;;;6.85;;
45114;SDS011;30877;43.706;10.780;2024-03-23T01:46:56;9.88;;;6.80;;
45114;SDS011;30877;43.706;10.780;2024-03-23T01:49:24;9.98;;;6.88;;
45114;SDS011;30877;43.706;10.780;2024-03-23T01:51:53;9.13;;;7.03;;
45114;SDS011;30877;43.706;10.780;2024-03-23T01:54:20;10.82;;;7.40;;
45114;SDS011;30877;43.706;10.780;2024-03-23T01:56:50;8.20;;;6.43;;
45114;SDS011;30877;43.706;10.780;2024-03-23T01:59:18;12.02;;;6.68;;
45114;SDS011;30877;43.706;10.780;2024-03-23T02:01:48;9.63;;;7.07;;
45114;SDS011;30877;43.706;10.780;2024-03-23T02:04:17;9.82;;;7.28;;
45114;SDS011;30877;43.706;10.780;2024-03-23T02:06:45;8.55;;;6.95;;
45114;SDS011;30877;43.706;10.780;2024-03-23T02:09:12;9.50;;;6.75;;
45114;SDS011;30877;43.706;10.780;2024-03-23T02:11:42;10.63;;;6.75;;
45114;SDS011;30877;43.706;10.780;2024-03-23T02:14:11;9.35;;;6.57;;
45114;SDS011;30877;43.706;10.780;2024-03-23T02:16:39;7.53;;;5.97;;
45114;SDS011;30877;43.706;10.780;2024-03-23T02:19:10;7.90;;;6.40;;
45114;SDS011;30877;43.706;10.780;2024-03-23T02:21:39;10.13;;;7.40;;
45114;SDS011;30877;43.706;10.780;2024-03-23T02:24:09;9.50;;;6.70;;
45114;SDS011;30877;43.706;10.780;2024-03-23T02:26:37;10.82;;;7.72;;
45114;SDS011;30877;43.706;10.780;2024-03-23T02:29:06;9.13;;;6.43;;
45114;SDS011;30877;43.706;10.780;2024-03-23T02:31:38;8.68;;;6.88;;
45114;SDS011;30877;43.706;10.780;2024-03-23T02:34:09;10.88;;;6.93;;
45114;SDS011;30877;43.706;10.780;2024-03-23T02:36:37;8.05;;;6.30;;
45114;SDS011;30877;43.706;10.780;2024-03-23T02:39:04;7.97;;;6.60;;
45114;SDS011;30877;43.706;10.780;2024-03-23T02:41:36;9.48;;;7.07;;
45114;SDS011;30877;43.706;10.780;2024-03-23T02:44:04;9.10;;;6.85;;
45114;SDS011;30877;43.706;10.780;2024-03-23T02:46:31;10.82;;;7.45;;
45114;SDS011;30877;43.706;10.780;2024-03-23T02:48:59;9.52;;;7.20;;
45114;SDS011;30877;43.706;10.780;2024-03-23T02:51:27;8.88;;;7.65;;
45114;SDS011;30877;43.706;10.780;2024-03-23T02:53:55;11.38;;;8.27;;
45114;SDS011;30877;43.706;10.780;2024-03-23T02:56:24;11.02;;;7.90;;
45114;SDS011;30877;43.706;10.780;2024-03-23T02:58:57;8.43;;;7.38;;
45114;SDS011;30877;43.706;10.780;2024-03-23T03:01:26;10.20;;;7.65;;
45114;SDS011;30877;43.706;10.780;2024-03-23T03:03:54;10.98;;;7.40;;
45114;SDS011;30877;43.706;10.780;2024-03-23T03:06:23;11.60;;;7.57;;
45114;SDS011;30877;43.706;10.780;2024-03-23T03:08:52;10.88;;;7.53;;
45114;SDS011;30877;43.706;10.780;2024-03-23T03:11:19;9.05;;;7.35;;
45114;SDS011;30877;43.706;10.780;2024-03-23T03:13:46;9.05;;;6.22;;
45114;SDS011;30877;43.706;10.780;2024-03-23T03:16:17;9.27;;;6.15;;
45114;SDS011;30877;43.706;10.780;2024-03-23T03:18:47;8.10;;;5.63;;
45114;SDS011;30877;43.706;10.780;2024-03-23T03:21:16;7.38;;;5.50;;
45114;SDS011;30877;43.706;10.780;2024-03-23T03:23:45;6.85;;;5.30;;
45114;SDS011;30877;43.706;10.780;2024-03-23T03:26:18;7.43;;;5.80;;
45114;SDS011;30877;43.706;10.780;2024-03-23T03:28:46;7.18;;;5.93;;
45114;SDS011;30877;43.706;10.780;2024-03-23T03:31:17;8.23;;;5.80;;
45114;SDS011;30877;43.706;10.780;2024-03-23T03:33:46;6.68;;;5.78;;
45114;SDS011;30877;43.706;10.780;2024-03-23T03:36:17;7.57;;;5.85;;
45114;SDS011;30877;43.706;10.780;2024-03-23T03:38:45;6.82;;;5.82;;
45114;SDS011;30877;43.706;10.780;2024-03-23T03:41:14;6.97;;;4.82;;
45114;SDS011;30877;43.706;10.780;2024-03-23T03:43:41;6.97;;;4.80;;
45114;SDS011;30877;43.706;10.780;2024-03-23T03:46:11;7.13;;;4.63;;
45114;SDS011;30877;43.706;10.780;2024-03-23T03:48:40;5.57;;;4.32;;
45114;SDS011;30877;43.706;10.780;2024-03-23T03:51:08;4.18;;;3.60;;
45114;SDS011;30877;43.706;10.780;2024-03-23T03:53:36;4.68;;;3.72;;
45114;SDS011;30877;43.706;10.780;2024-03-23T03:56:04;7.95;;;3.90;;
45114;SDS011;30877;43.706;10.780;2024-03-23T03:58:33;4.50;;;3.83;;
45114;SDS011;30877;43.706;10.780;2024-03-23T04:01:02;5.85;;;3.78;;
45114;SDS011;30877;43.706;10.780;2024-03-23T04:03:30;3.80;;;3.38;;
45114;SDS011;30877;43.706;10.780;2024-03-23T04:05:59;5.30;;;3.17;;
45114;SDS011;30877;43.706;10.780;2024-03-23T04:08:26;4.50;;;3.70;;
45114;SDS011;30877;43.706;10.780;2024-03-23T04:10:54;5.22;;;3.50;;
45114;SDS011;30877;43.706;10.780;2024-03-23T04:13:21;4.97;;;3.50;;
45114;SDS011;30877;43.706;10.780;2024-03-23T04:15:53;5.47;;;3.53;;
45114;SDS011;30877;43.706;10.780;2024-03-23T04:18:22;4.65;;;3.38;;
45114;SDS011;30877;43.706;10.780;2024-03-23T04:20:50;3.75;;;3.30;;
45114;SDS011;30877;43.706;10.780;2024-03-23T04:23:22;5.35;;;3.67;;
45114;SDS011;30877;43.706;10.780;2024-03-23T04:25:50;4.65;;;3.25;;
45114;SDS011;30877;43.706;10.780;2024-03-23T04:28:20;5.25;;;3.75;;
45114;SDS011;30877;43.706;10.780;2024-03-23T04:30:50;4.80;;;3.58;;
45114;SDS011;30877;43.706;10.780;2024-03-23T04:33:19;5.43;;;3.17;;
45114;SDS011;30877;43.706;10.780;2024-03-23T04:35:48;4.55;;;3.60;;
45114;SDS011;30877;43.706;10.780;2024-03-23T04:38:16;5.55;;;3.70;;
45114;SDS011;30877;43.706;10.780;2024-03-23T04:40:55;4.32;;;3.30;;
45114;SDS011;30877;43.706;10.780;2024-03-23T04:43:22;5.07;;;3.63;;
45114;SDS011;30877;43.706;10.780;2024-03-23T04:45:49;5.00;;;3.67;;
45114;SDS011;30877;43.706;10.780;2024-03-23T04:48:19;5.00;;;3.75;;
45114;SDS011;30877;43.706;10.780;2024-03-23T04:50:54;7.32;;;3.95;;
45114;SDS011;30877;43.706;10.780;2024-03-23T04:53:27;4.10;;;3.30;;
45114;SDS011;30877;43.706;10.780;2024-03-23T04:55:55;4.78;;;3.42;;
45114;SDS011;30877;43.706;10.780;2024-03-23T04:58:23;5.70;;;3.45;;
45114;SDS011;30877;43.706;10.780;2024-03-23T05:00:54;6.18;;;3.58;;
45114;SDS011;30877;43.706;10.780;2024-03-23T05:03:23;5.15;;;3.45;;
45114;SDS011;30877;43.706;10.780;2024-03-23T05:05:53;4.10;;;3.53;;
45114;SDS011;30877;43.706;10.780;2024-03-23T05:08:22;5.10;;;3.20;;
45114;SDS011;30877;43.706;10.780;2024-03-23T05:10:51;6.57;;;3.45;;
45114;SDS011;30877;43.706;10.780;2024-03-23T05:13:19;5.20;;;3.60;;
45114;SDS011;30877;43.706;10.780;2024-03-23T05:15:50;4.03;;;3.17;;
45114;SDS011;30877;43.706;10.780;2024-03-23T05:18:21;3.63;;;2.97;;
45114;SDS011;30877;43.706;10.780;2024-03-23T05:20:48;4.60;;;3.05;;
45114;SDS011;30877;43.706;10.780;2024-03-23T05:23:22;4.53;;;3.13;;
45114;SDS011;30877;43.706;10.780;2024-03-23T05:25:51;6.18;;;3.35;;
45114;SDS011;30877;43.706;10.780;2024-03-23T05:28:19;5.70;;;3.22;;
45114;SDS011;30877;43.706;10.780;2024-03-23T05:30:50;3.88;;;3.08;;
45114;SDS011;30877;43.706;10.780;2024-03-23T05:33:18;3.60;;;3.20;;
45114;SDS011;30877;43.706;10.780;2024-03-23T05:35:47;5.25;;;3.10;;
45114;SDS011;30877;43.706;10.780;2024-03-23T05:38:24;4.60;;;3.08;;
45114;SDS011;30877;43.706;10.780;2024-03-23T05:40:57;4.53;;;3.20;;
45114;SDS011;30877;43.706;10.780;2024-03-23T05:43:26;4.72;;;3.03;;
45114;SDS011;30877;43.706;10.780;2024-03-23T05:45:55;4.50;;;3.13;;
45114;SDS011;30877;43.706;10.780;2024-03-23T05:48:24;4.55;;;3.53;;
45114;SDS011;30877;43.706;10.780;2024-03-23T05:50:53;4.32;;;3.30;;
45114;SDS011;30877;43.706;10.780;2024-03-23T05:53:20;4.55;;;3.50;;
45114;SDS011;30877;43.706;10.780;2024-03-23T05:55:48;4.85;;;3.58;;
45114;SDS011;30877;43.706;10.780;2024-03-23T05:58:17;6.75;;;4.03;;
45114;SDS011;30877;43.706;10.780;2024-03-23T06:00:49;5.85;;;4.45;;
45114;SDS011;30877;43.706;10.780;2024-03-23T06:03:24;5.40;;;4.60;;
45114;SDS011;30877;43.706;10.780;2024-03-23T06:05:51;7.60;;;4.72;;
45114;SDS011;30877;43.706;10.780;2024-03-23T06:08:22;8.50;;;5.05;;
45114;SDS011;30877;43.706;10.780;2024-03-23T06:10:50;6.10;;;4.47;;
45114;SDS011;30877;43.706;10.780;2024-03-23T06:13:20;6.72;;;4.63;;
45114;SDS011;30877;43.706;10.780;2024-03-23T06:15:57;5.53;;;4.45;;
45114;SDS011;30877;43.706;10.780;2024-03-23T06:18:24;6.47;;;5.25;;
45114;SDS011;30877;43.706;10.780;2024-03-23T06:20:53;6.63;;;4.75;;
45114;SDS011;30877;43.706;10.780;2024-03-23T06:23:21;6.57;;;5.10;;
45114;SDS011;30877;43.706;10.780;2024-03-23T06:25:50;7.05;;;4.93;;
45114;SDS011;30877;43.706;10.780;2024-03-23T06:28:21;7.93;;;5.38;;
45114;SDS011;30877;43.706;10.780;2024-03-23T06:30:50;8.02;;;6.40;;
45114;SDS011;30877;43.706;10.780;2024-03-23T06:33:19;7.95;;;6.45;;
45114;SDS011;30877;43.706;10.780;2024-03-23T06:35:49;10.32;;;8.07;;
45114;SDS011;30877;43.706;10.780;2024-03-23T06:38:18;10.20;;;8.50;;
45114;SDS011;30877;43.706;10.780;2024-03-23T06:40:46;15.05;;;8.98;;
45114;SDS011;30877;43.706;10.780;2024-03-23T06:43:15;14.10;;;10.88;;
45114;SDS011;30877;43.706;10.780;2024-03-23T06:45:54;13.85;;;10.25;;
45114;SDS011;30877;43.706;10.780;2024-03-23T06:48:22;15.48;;;10.20;;
45114;SDS011;30877;43.706;10.780;2024-03-23T06:50:55;13.50;;;10.40;;
45114;SDS011;30877;43.706;10.780;2024-03-23T06:53:23;17.13;;;11.32;;
45114;SDS011;30877;43.706;10.780;2024-03-23T06:55:51;15.40;;;11.18;;
45114;SDS011;30877;43.706;10.780;2024-03-23T06:58:21;16.45;;;11.43;;
45114;SDS011;30877;43.706;10.780;2024-03-23T07:00:50;12.98;;;10.50;;
45114;SDS011;30877;43.706;10.780;2024-03-23T07:03:20;16.95;;;10.23;;
45114;SDS011;30877;43.706;10.780;2024-03-23T07:05:49;13.80;;;10.40;;
45114;SDS011;30877;43.706;10.780;2024-03-23T07:08:17;15.63;;;9.93;;
45114;SDS011;30877;43.706;10.780;2024-03-23T07:10:49;13.80;;;9.90;;
45114;SDS011;30877;43.706;10.780;2024-03-23T07:13:17;14.05;;;9.55;;
45114;SDS011;30877;43.706;10.780;2024-03-23T07:15:51;20.60;;;9.80;;
45114;SDS011;30877;43.706;10.780;2024-03-23T07:18:21;14.18;;;9.90;;
45114;SDS011;30877;43.706;10.780;2024-03-23T07:20:52;16.52;;;10.45;;
45114;SDS011;30877;43.706;10.780;2024-03-23T07:23:21;13.48;;;10.95;;
45114;SDS011;30877;43.706;10.780;2024-03-23T07:28:35;13.63;;;10.48;;
45114;SDS011;30877;43.706;10.780;2024-03-23T07:31:06;13.88;;;10.30;;
45114;SDS011;30877;43.706;10.780;2024-03-23T07:33:38;12.63;;;9.10;;
45114;SDS011;30877;43.706;10.780;2024-03-23T07:36:09;14.07;;;9.30;;
45114;SDS011;30877;43.706;10.780;2024-03-23T07:38:37;13.85;;;9.85;;
45114;SDS011;30877;43.706;10.780;2024-03-23T07:41:07;11.52;;;9.68;;
45114;SDS011;30877;43.706;10.780;2024-03-23T07:43:36;12.85;;;9.18;;
45114;SDS011;30877;43.706;10.780;2024-03-23T07:46:07;13.40;;;10.23;;
45114;SDS011;30877;43.706;10.780;2024-03-23T07:48:37;13.85;;;9.98;;
45114;SDS011;30877;43.706;10.780;2024-03-23T07:51:09;11.77;;;9.00;;
45114;SDS011;30877;43.706;10.780;2024-03-23T07:53:37;12.20;;;9.45;;
45114;SDS011;30877;43.706;10.780;2024-03-23T07:56:06;12.63;;;9.18;;
45114;SDS011;30877;43.706;10.780;2024-03-23T07:58:34;11.63;;;9.45;;
45114;SDS011;30877;43.706;10.780;2024-03-23T08:01:06;19.92;;;17.13;;
45114;SDS011;30877;43.706;10.780;2024-03-23T08:03:37;13.52;;;10.45;;
45114;SDS011;30877;43.706;10.780;2024-03-23T08:06:09;12.10;;;9.90;;
45114;SDS011;30877;43.706;10.780;2024-03-23T08:08:37;13.10;;;9.90;;
45114;SDS011;30877;43.706;10.780;2024-03-23T08:11:06;10.63;;;9.30;;
45114;SDS011;30877;43.706;10.780;2024-03-23T08:13:34;14.63;;;9.65;;
45114;SDS011;30877;43.706;10.780;2024-03-23T08:16:02;14.02;;;10.23;;
45114;SDS011;30877;43.706;10.780;2024-03-23T08:18:30;13.07;;;10.45;;
45114;SDS011;30877;43.706;10.780;2024-03-23T08:21:01;13.68;;;10.77;;
45114;SDS011;30877;43.706;10.780;2024-03-23T08:23:29;14.85;;;12.52;;
45114;SDS011;30877;43.706;10.780;2024-03-23T08:26:00;15.98;;;12.60;;
45114;SDS011;30877;43.706;10.780;2024-03-23T08:28:28;16.20;;;12.32;;
45114;SDS011;30877;43.706;10.780;2024-03-23T08:30:56;15.93;;;12.02;;
45114;SDS011;30877;43.706;10.780;2024-03-23T08:33:27;15.45;;;12.05;;
45114;SDS011;30877;43.706;10.780;2024-03-23T08:35:57;15.38;;;11.98;;
45114;SDS011;30877;43.706;10.780;2024-03-23T08:38:28;15.95;;;12.35;;
45114;SDS011;30877;43.706;10.780;2024-03-23T08:40:56;16.63;;;12.52;;
45114;SDS011;30877;43.706;10.780;2024-03-23T08:43:24;17.13;;;12.55;;
45114;SDS011;30877;43.706;10.780;2024-03-23T08:45:52;14.82;;;12.18;;
45114;SDS011;30877;43.706;10.780;2024-03-23T08:48:21;13.57;;;11.48;;
45114;SDS011;30877;43.706;10.780;2024-03-23T08:50:57;18.08;;;11.15;;
45114;SDS011;30877;43.706;10.780;2024-03-23T08:53:28;12.70;;;8.77;;
45114;SDS011;30877;43.706;10.780;2024-03-23T08:55:57;13.07;;;9.85;;
45114;SDS011;30877;43.706;10.780;2024-03-23T08:58:25;14.48;;;11.20;;
45114;SDS011;30877;43.706;10.780;2024-03-23T09:00:53;11.27;;;8.30;;
45114;SDS011;30877;43.706;10.780;2024-03-23T09:03:23;10.45;;;8.82;;
45114;SDS011;30877;43.706;10.780;2024-03-23T09:05:52;10.52;;;7.43;;
45114;SDS011;30877;43.706;10.780;2024-03-23T09:08:23;8.57;;;7.30;;
45114;SDS011;30877;43.706;10.780;2024-03-23T09:10:51;10.80;;;8.40;;
45114;SDS011;30877;43.706;10.780;2024-03-23T09:13:19;10.20;;;7.70;;
45114;SDS011;30877;43.706;10.780;2024-03-23T09:15:48;10.18;;;8.77;;
45114;SDS011;30877;43.706;10.780;2024-03-23T09:18:16;9.85;;;7.95;;
45114;SDS011;30877;43.706;10.780;2024-03-23T09:20:45;10.48;;;8.35;;
45114;SDS011;30877;43.706;10.780;2024-03-23T09:23:13;11.20;;;9.07;;
45114;SDS011;30877;43.706;10.780;2024-03-23T09:25:43;10.90;;;8.50;;
45114;SDS011;30877;43.706;10.780;2024-03-23T09:28:10;12.98;;;9.27;;
45114;SDS011;30877;43.706;10.780;2024-03-23T09:30:39;10.82;;;9.23;;
45114;SDS011;30877;43.706;10.780;2024-03-23T09:33:11;12.32;;;7.97;;
45114;SDS011;30877;43.706;10.780;2024-03-23T09:35:39;9.43;;;7.85;;
45114;SDS011;30877;43.706;10.780;2024-03-23T09:38:07;10.27;;;7.80;;
45114;SDS011;30877;43.706;10.780;2024-03-23T09:40:40;12.15;;;8.50;;
45114;SDS011;30877;43.706;10.780;2024-03-23T09:43:13;11.50;;;7.70;;
45114;SDS011;30877;43.706;10.780;2024-03-23T09:45:40;11.75;;;8.30;;
45114;SDS011;30877;43.706;10.780;2024-03-23T09:48:09;10.20;;;7.93;;
45114;SDS011;30877;43.706;10.780;2024-03-23T09:50:36;9.13;;;7.63;;
45114;SDS011;30877;43.706;10.780;2024-03-23T09:53:06;7.68;;;6.85;;
45114;SDS011;30877;43.706;10.780;2024-03-23T09:55:35;8.55;;;7.03;;
45114;SDS011;30877;43.706;10.780;2024-03-23T09:58:04;9.05;;;7.35;;
45114;SDS011;30877;43.706;10.780;2024-03-23T10:00:35;8.85;;;6.55;;
45114;SDS011;30877;43.706;10.780;2024-03-23T10:03:02;8.05;;;6.43;;
45114;SDS011;30877;43.706;10.780;2024-03-23T10:05:31;8.00;;;6.40;;
45114;SDS011;30877;43.706;10.780;2024-03-23T10:08:12;7.63;;;5.93;;
45114;SDS011;30877;43.706;10.780;2024-03-23T10:10:46;8.65;;;5.97;;
45114;SDS011;30877;43.706;10.780;2024-03-23T10:13:23;9.07;;;6.20;;
45114;SDS011;30877;43.706;10.780;2024-03-23T10:15:57;7.38;;;6.57;;
45114;SDS011;30877;43.706;10.780;2024-03-23T10:18:25;11.20;;;6.47;;
45114;SDS011;30877;43.706;10.780;2024-03-23T10:21:06;8.20;;;5.88;;
45114;SDS011;30877;43.706;10.780;2024-03-23T10:23:36;7.72;;;6.10;;
45114;SDS011;30877;43.706;10.780;2024-03-23T10:26:14;7.43;;;5.75;;
45114;SDS011;30877;43.706;10.780;2024-03-23T10:28:52;7.75;;;5.45;;
45114;SDS011;30877;43.706;10.780;2024-03-23T10:31:23;7.75;;;5.57;;
45114;SDS011;30877;43.706;10.780;2024-03-23T10:33:51;9.07;;;6.30;;
45114;SDS011;30877;43.706;10.780;2024-03-23T10:36:23;10.20;;;5.85;;
45114;SDS011;30877;43.706;10.780;2024-03-23T10:38:53;9.40;;;6.32;;
45114;SDS011;30877;43.706;10.780;2024-03-23T10:41:21;6.47;;;5.43;;
45114;SDS011;30877;43.706;10.780;2024-03-23T10:43:50;7.68;;;6.82;;
45114;SDS011;30877;43.706;10.780;2024-03-23T10:46:18;8.27;;;7.35;;
45114;SDS011;30877;43.706;10.780;2024-03-23T10:48:48;9.43;;;6.90;;
45114;SDS011;30877;43.706;10.780;2024-03-23T10:51:16;10.88;;;7.43;;
45114;SDS011;30877;43.706;10.780;2024-03-23T10:53:46;8.38;;;6.97;;
45114;SDS011;30877;43.706;10.780;2024-03-23T10:56:14;7.18;;;5.90;;
45114;SDS011;30877;43.706;10.780;2024-03-23T10:58:44;9.65;;;7.43;;
45114;SDS011;30877;43.706;10.780;2024-03-23T11:01:17;8.00;;;6.55;;
45114;SDS011;30877;43.706;10.780;2024-03-23T11:03:46;8.05;;;6.57;;
45114;SDS011;30877;43.706;10.780;2024-03-23T11:06:34;9.32;;;6.20;;
45114;SDS011;30877;43.706;10.780;2024-03-23T11:09:03;11.10;;;7.60;;
45114;SDS011;30877;43.706;10.780;2024-03-23T11:11:53;8.00;;;6.07;;
45114;SDS011;30877;43.706;10.780;2024-03-23T11:14:22;7.28;;;5.32;;
45114;SDS011;30877;43.706;10.780;2024-03-23T11:16:58;6.38;;;5.65;;
45114;SDS011;30877;43.706;10.780;2024-03-23T11:19:37;8.23;;;5.30;;
45114;SDS011;30877;43.706;10.780;2024-03-23T11:22:05;8.60;;;5.82;;
45114;SDS011;30877;43.706;10.780;2024-03-23T11:24:35;9.02;;;6.18;;
45114;SDS011;30877;43.706;10.780;2024-03-23T11:27:15;10.75;;;7.38;;
45114;SDS011;30877;43.706;10.780;2024-03-23T11:29:44;9.95;;;7.43;;
45114;SDS011;30877;43.706;10.780;2024-03-23T11:32:11;11.90;;;6.45;;
45114;SDS011;30877;43.706;10.780;2024-03-23T11:34:43;8.68;;;6.22;;
45114;SDS011;30877;43.706;10.780;2024-03-23T11:37:14;11.60;;;7.55;;
45114;SDS011;30877;43.706;10.780;2024-03-23T11:39:44;39.45;;;30.15;;
45114;SDS011;30877;43.706;10.780;2024-03-23T11:42:18;7.15;;;5.38;;
45114;SDS011;30877;43.706;10.780;2024-03-23T11:44:50;8.18;;;6.30;;
45114;SDS011;30877;43.706;10.780;2024-03-23T11:47:18;9.88;;;6.47;;
45114;SDS011;30877;43.706;10.780;2024-03-23T11:49:50;8.60;;;6.07;;
45114;SDS011;30877;43.706;10.780;2024-03-23T11:52:21;8.15;;;5.10;;
45114;SDS011;30877;43.706;10.780;2024-03-23T11:54:48;6.40;;;4.53;;
45114;SDS011;30877;43.706;10.780;2024-03-23T11:57:16;6.55;;;3.78;;
45114;SDS011;30877;43.706;10.780;2024-03-23T11:59:43;6.75;;;4.88;;
45114;SDS011;30877;43.706;10.780;2024-03-23T12:02:13;7.75;;;4.00;;
45114;SDS011;30877;43.706;10.780;2024-03-23T12:04:44;6.65;;;4.03;;
45114;SDS011;30877;43.706;10.780;2024-03-23T12:07:16;4.97;;;4.13;;
45114;SDS011;30877;43.706;10.780;2024-03-23T12:09:48;8.18;;;4.18;;
45114;SDS011;30877;43.706;10.780;2024-03-23T12:12:30;5.20;;;3.88;;
45114;SDS011;30877;43.706;10.780;2024-03-23T12:15:01;6.07;;;3.70;;
45114;SDS011;30877;43.706;10.780;2024-03-23T12:17:29;4.55;;;3.42;;
45114;SDS011;30877;43.706;10.780;2024-03-23T12:19:57;6.15;;;4.00;;
45114;SDS011;30877;43.706;10.780;2024-03-23T12:22:27;5.00;;;3.97;;
45114;SDS011;30877;43.706;10.780;2024-03-23T12:24:58;7.68;;;3.80;;
45114;SDS011;30877;43.706;10.780;2024-03-23T12:27:26;6.93;;;4.18;;
45114;SDS011;30877;43.706;10.780;2024-03-23T12:29:56;4.32;;;3.50;;
45114;SDS011;30877;43.706;10.780;2024-03-23T12:32:25;6.35;;;4.25;;
45114;SDS011;30877;43.706;10.780;2024-03-23T12:34:52;6.72;;;4.47;;
45114;SDS011;30877;43.706;10.780;2024-03-23T12:37:21;6.70;;;4.53;;
45114;SDS011;30877;43.706;10.780;2024-03-23T12:39:52;6.78;;;4.72;;
45114;SDS011;30877;43.706;10.780;2024-03-23T12:42:19;8.20;;;5.68;;
45114;SDS011;30877;43.706;10.780;2024-03-23T12:44:47;6.85;;;5.85;;
45114;SDS011;30877;43.706;10.780;2024-03-23T12:47:16;8.18;;;4.78;;
45114;SDS011;30877;43.706;10.780;2024-03-23T12:49:44;7.43;;;4.47;;
45114;SDS011;30877;43.706;10.780;2024-03-23T12:52:12;6.68;;;3.95;;
45114;SDS011;30877;43.706;10.780;2024-03-23T12:54:43;7.45;;;4.22;;
45114;SDS011;30877;43.706;10.780;2024-03-23T12:57:12;6.68;;;4.10;;
45114;SDS011;30877;43.706;10.780;2024-03-23T12:59:40;9.85;;;4.25;;
45114;SDS011;30877;43.706;10.780;2024-03-23T13:02:08;5.25;;;3.70;;
45114;SDS011;30877;43.706;10.780;2024-03-23T13:04:37;5.43;;;3.88;;
45114;SDS011;30877;43.706;10.780;2024-03-23T13:07:04;8.00;;;3.88;;
45114;SDS011;30877;43.706;10.780;2024-03-23T13:09:34;4.82;;;3.30;;
45114;SDS011;30877;43.706;10.780;2024-03-23T13:12:02;6.88;;;3.50;;
45114;SDS011;30877;43.706;10.780;2024-03-23T13:14:33;6.82;;;3.63;;
45114;SDS011;30877;43.706;10.780;2024-03-23T13:17:01;8.80;;;3.70;;
45114;SDS011;30877;43.706;10.780;2024-03-23T13:19:30;8.88;;;3.30;;
45114;SDS011;30877;43.706;10.780;2024-03-23T13:21:59;5.15;;;3.38;;
45114;SDS011;30877;43.706;10.780;2024-03-23T13:24:27;7.93;;;4.70;;
45114;SDS011;30877;43.706;10.780;2024-03-23T13:26:57;6.07;;;4.30;;
45114;SDS011;30877;43.706;10.780;2024-03-23T13:29:26;5.70;;;3.50;;
45114;SDS011;30877;43.706;10.780;2024-03-23T13:31:55;4.55;;;3.40;;
45114;SDS011;30877;43.706;10.780;2024-03-23T13:34:22;6.18;;;3.38;;
45114;SDS011;30877;43.706;10.780;2024-03-23T13:36:50;7.07;;;3.65;;
45114;SDS011;30877;43.706;10.780;2024-03-23T13:39:18;4.82;;;3.60;;
45114;SDS011;30877;43.706;10.780;2024-03-23T13:41:46;7.20;;;3.60;;
45114;SDS011;30877;43.706;10.780;2024-03-23T13:44:13;5.78;;;3.17;;
45114;SDS011;30877;43.706;10.780;2024-03-23T13:46:42;5.47;;;3.33;;
45114;SDS011;30877;43.706;10.780;2024-03-23T13:49:25;6.80;;;4.20;;
45114;SDS011;30877;43.706;10.780;2024-03-23T13:51:54;8.00;;;3.80;;
45114;SDS011;30877;43.706;10.780;2024-03-23T13:54:25;5.70;;;3.28;;
45114;SDS011;30877;43.706;10.780;2024-03-23T13:56:53;7.60;;;3.75;;
45114;SDS011;30877;43.706;10.780;2024-03-23T13:59:21;5.13;;;3.75;;
45114;SDS011;30877;43.706;10.780;2024-03-23T14:01:50;5.40;;;3.92;;
45114;SDS011;30877;43.706;10.780;2024-03-23T14:04:20;6.35;;;3.72;;
45114;SDS011;30877;43.706;10.780;2024-03-23T14:06:49;10.15;;;4.10;;
45114;SDS011;30877;43.706;10.780;2024-03-23T14:09:17;8.23;;;3.70;;
45114;SDS011;30877;43.706;10.780;2024-03-23T14:11:49;6.35;;;3.50;;
45114;SDS011;30877;43.706;10.780;2024-03-23T14:14:17;8.35;;;4.15;;
45114;SDS011;30877;43.706;10.780;2024-03-23T14:16:45;7.47;;;3.88;;
45114;SDS011;30877;43.706;10.780;2024-03-23T14:19:12;7.00;;;3.53;;
45114;SDS011;30877;43.706;10.780;2024-03-23T14:21:41;6.80;;;3.72;;
45114;SDS011;30877;43.706;10.780;2024-03-23T14:24:09;8.95;;;4.03;;
45114;SDS011;30877;43.706;10.780;2024-03-23T14:26:37;7.38;;;4.15;;
45114;SDS011;30877;43.706;10.780;2024-03-23T14:29:05;8.57;;;4.55;;
45114;SDS011;30877;43.706;10.780;2024-03-23T14:31:34;8.32;;;4.60;;
45114;SDS011;30877;43.706;10.780;2024-03-23T14:34:02;6.82;;;4.22;;
45114;SDS011;30877;43.706;10.780;2024-03-23T14:36:30;4.57;;;3.67;;
45114;SDS011;30877;43.706;10.780;2024-03-23T14:39:00;6.90;;;3.85;;
45114;SDS011;30877;43.706;10.780;2024-03-23T14:41:28;8.05;;;4.88;;
45114;SDS011;30877;43.706;10.780;2024-03-23T14:43:57;7.30;;;3.80;;
45114;SDS011;30877;43.706;10.780;2024-03-23T14:46:24;8.98;;;4.75;;
45114;SDS011;30877;43.706;10.780;2024-03-23T14:48:52;7.65;;;4.70;;
45114;SDS011;30877;43.706;10.780;2024-03-23T14:51:20;10.88;;;5.55;;
45114;SDS011;30877;43.706;10.780;2024-03-23T14:53:48;8.23;;;5.15;;
45114;SDS011;30877;43.706;10.780;2024-03-23T14:56:17;10.60;;;5.30;;
45114;SDS011;30877;43.706;10.780;2024-03-23T14:58:45;7.57;;;4.30;;
45114;SDS011;30877;43.706;10.780;2024-03-23T15:01:14;8.80;;;4.72;;
45114;SDS011;30877;43.706;10.780;2024-03-23T15:03:42;13.30;;;7.25;;
45114;SDS011;30877;43.706;10.780;2024-03-23T15:06:12;6.97;;;4.57;;
45114;SDS011;30877;43.706;10.780;2024-03-23T15:08:43;5.80;;;3.70;;
45114;SDS011;30877;43.706;10.780;2024-03-23T15:11:12;7.55;;;4.60;;
45114;SDS011;30877;43.706;10.780;2024-03-23T15:13:43;6.28;;;4.20;;
45114;SDS011;30877;43.706;10.780;2024-03-23T15:16:16;5.88;;;3.53;;
45114;SDS011;30877;43.706;10.780;2024-03-23T15:18:46;7.65;;;3.60;;
45114;SDS011;30877;43.706;10.780;2024-03-23T15:21:14;5.55;;;3.50;;
45114;SDS011;30877;43.706;10.780;2024-03-23T15:23:47;4.93;;;3.55;;
45114;SDS011;30877;43.706;10.780;2024-03-23T15:26:15;6.72;;;3.80;;
45114;SDS011;30877;43.706;10.780;2024-03-23T15:28:47;8.00;;;4.50;;
45114;SDS011;30877;43.706;10.780;2024-03-23T15:31:24;7.28;;;5.40;;
45114;SDS011;30877;43.706;10.780;2024-03-23T15:33:52;6.93;;;4.80;;
45114;SDS011;30877;43.706;10.780;2024-03-23T15:36:19;7.05;;;4.45;;